| time (UTC) | temp F | wind direction | speed MPH | gust MPH | rain 1hr in | rain 24hr in | rain mn in | humidity % | barometer mb |
| 20260508013106 | 54 | 154 | 0.0 | 2.0 | 0.00 | 0.34 | 0.30 | 88 | 1013.9 |
| 20260508013039 | 54 | 154 | 0.0 | 3.0 | 0.00 | 0.36 | 0.30 | 88 | 1011.9 |
| 20260508012521 | 54 | 151 | 1.0 | 3.0 | 0.00 | 0.36 | 0.30 | 88 | 1011.8 |
| 20260508012112 | 55 | 136 | 0.0 | 1.0 | 0.00 | 0.34 | 0.30 | 88 | 1013.9 |
| 20260508012024 | 54 | 122 | 0.0 | 2.0 | 0.00 | 0.36 | 0.30 | 88 | 1011.7 |
| 20260508011548 | 55 | 0 | 0.0 | 2.0 | 0.00 | 0.36 | 0.30 | 88 | 1011.8 |
| 20260508011111 | 55 | 122 | 0.0 | 0.0 | 0.00 | 0.34 | 0.30 | 88 | 1013.7 |
| 20260508011021 | 55 | 0 | 0.0 | 2.0 | 0.00 | 0.36 | 0.30 | 88 | 1011.7 |
| 20260508010521 | 55 | 0 | 0.0 | 2.0 | 0.00 | 0.36 | 0.30 | 88 | 1011.8 |
| 20260508010136 | 56 | 122 | 0.0 | 0.0 | 0.00 | 0.35 | 0.30 | 88 | 1013.7 |
| 20260508010055 | 55 | 0 | 0.0 | 2.0 | 0.00 | 0.36 | 0.30 | 88 | 1011.6 |
| 20260508005532 | 55 | 122 | 0.0 | 2.0 | 0.00 | 0.37 | 0.30 | 88 | 1011.6 |
| 20260508005126 | 56 | 122 | 0.0 | 0.0 | 0.00 | 0.35 | 0.30 | 88 | 1013.7 |
| 20260508005021 | 56 | 0 | 0.0 | 1.0 | 0.00 | 0.37 | 0.30 | 88 | 1011.6 |
| 20260508004554 | 56 | 122 | 0.0 | 1.0 | 0.00 | 0.37 | 0.30 | 88 | 1011.5 |
| 20260508004108 | 56 | 122 | 0.0 | 0.0 | 0.00 | 0.36 | 0.30 | 88 | 1013.5 |
| 20260508004021 | 56 | 0 | 0.0 | 1.0 | 0.00 | 0.37 | 0.30 | 88 | 1011.4 |
| 20260508003521 | 56 | 0 | 0.0 | 1.0 | 0.00 | 0.37 | 0.30 | 88 | 1011.5 |
| 20260508003110 | 57 | 122 | 0.0 | 0.0 | 0.00 | 0.36 | 0.30 | 88 | 1013.5 |
| 20260508003043 | 56 | 0 | 0.0 | 1.0 | 0.00 | 0.37 | 0.30 | 88 | 1011.5 |
| 20260508002522 | 56 | 0 | 0.0 | 1.0 | 0.00 | 0.37 | 0.30 | 88 | 1011.6 |
| 20260508002117 | 57 | 122 | 0.0 | 0.0 | 0.00 | 0.36 | 0.30 | 88 | 1013.6 |
| 20260508002021 | 56 | 0 | 0.0 | 2.0 | 0.00 | 0.37 | 0.30 | 88 | 1011.6 |
| 20260508001543 | 56 | 0 | 0.0 | 2.0 | 0.00 | 0.37 | 0.30 | 88 | 1011.6 |
| 20260508001107 | 57 | 122 | 0.0 | 1.0 | 0.00 | 0.36 | 0.30 | 88 | 1013.7 |
| 20260508001021 | 56 | 122 | 0.0 | 2.0 | 0.00 | 0.37 | 0.30 | 88 | 1011.5 |
| 20260508000525 | 56 | 0 | 0.0 | 0.0 | 0.00 | 0.37 | 0.30 | 88 | 1011.5 |
| 20260508000128 | 57 | 23 | 0.0 | 0.0 | 0.00 | 0.36 | 0.30 | 88 | 1013.6 |
| 20260508000038 | 56 | 0 | 0.0 | 1.0 | 0.00 | 0.37 | 0.30 | 88 | 1011.5 |
| 20260507235521 | 56 | 0 | 0.0 | 1.0 | 0.00 | 0.37 | 0.30 | 88 | 1011.4 |
| 20260507235106 | 57 | 23 | 0.0 | 0.0 | 0.00 | 0.36 | 0.30 | 88 | 1013.5 |
| 20260507235024 | 56 | 0 | 0.0 | 1.0 | 0.00 | 0.37 | 0.30 | 88 | 1011.4 |
| 20260507234542 | 56 | 0 | 0.0 | 1.0 | 0.00 | 0.37 | 0.30 | 88 | 1011.3 |
| 20260507234101 | 57 | 23 | 0.0 | 0.0 | 0.00 | 0.36 | 0.30 | 87 | 1013.3 |
| 20260507234020 | 57 | 0 | 0.0 | 2.0 | 0.00 | 0.37 | 0.30 | 87 | 1011.4 |
| 20260507233521 | 57 | 0 | 0.0 | 2.0 | 0.00 | 0.37 | 0.30 | 88 | 1011.2 |
| 20260507233118 | 57 | 98 | 0.0 | 0.0 | 0.00 | 0.36 | 0.30 | 88 | 1013.2 |
| 20260507233042 | 57 | 98 | 0.0 | 2.0 | 0.00 | 0.37 | 0.30 | 88 | 1011.0 |
| 20260507232520 | 57 | 98 | 0.0 | 2.0 | 0.00 | 0.37 | 0.30 | 88 | 1011.0 |
| 20260507232123 | 58 | 276 | 0.0 | 0.0 | 0.00 | 0.36 | 0.30 | 88 | 1013.0 |
| 20260507232020 | 57 | 0 | 0.0 | 2.0 | 0.00 | 0.37 | 0.30 | 88 | 1011.0 |
| 20260507231541 | 57 | 276 | 0.0 | 4.0 | 0.00 | 0.37 | 0.30 | 88 | 1010.8 |
| 20260507231021 | 57 | 0 | 0.0 | 4.0 | 0.00 | 0.37 | 0.30 | 88 | 1010.5 |
| 20260507230525 | 57 | 40 | 0.0 | 1.0 | 0.00 | 0.37 | 0.30 | 88 | 1010.5 |
| 20260507230040 | 56 | 0 | 0.0 | 3.0 | 0.00 | 0.37 | 0.30 | 88 | 1010.5 |
| 20260507230034 | 57 | 297 | 0.0 | 0.0 | 0.00 | 0.36 | 0.30 | 88 | 1012.5 |
| 20260507225521 | 56 | 0 | 0.0 | 3.0 | 0.00 | 0.37 | 0.30 | 88 | 1010.3 |
| 20260507225052 | 57 | 63 | 1.0 | 2.0 | 0.00 | 0.36 | 0.30 | 88 | 1012.4 |
| 20260507225022 | 57 | 5 | 1.0 | 4.0 | 0.00 | 0.37 | 0.30 | 88 | 1010.3 |
| 20260507224539 | 57 | 351 | 1.0 | 4.0 | 0.00 | 0.37 | 0.30 | 88 | 1010.3 |
| 20260507224109 | 57 | 3 | 0.0 | 2.0 | 0.00 | 0.36 | 0.30 | 88 | 1012.4 |
| 20260507224021 | 57 | 3 | 1.0 | 3.0 | 0.00 | 0.37 | 0.30 | 88 | 1010.4 |
| 20260507223523 | 57 | 0 | 1.0 | 3.0 | 0.00 | 0.37 | 0.30 | 88 | 1010.3 |
| 20260507223131 | 57 | 301 | 1.0 | 5.0 | 0.00 | 0.36 | 0.30 | 88 | 1012.4 |
| 20260507223042 | 57 | 325 | 0.0 | 6.0 | 0.00 | 0.37 | 0.30 | 88 | 1010.4 |
| 20260507222521 | 57 | 93 | 2.0 | 6.0 | 0.00 | 0.37 | 0.30 | 88 | 1010.3 |
| 20260507222020 | 57 | 317 | 2.0 | 6.0 | 0.00 | 0.37 | 0.30 | 88 | 1010.2 |
| 20260507221542 | 57 | 51 | 1.0 | 5.0 | 0.00 | 0.37 | 0.30 | 88 | 1010.1 |
| 20260507221021 | 57 | 322 | 2.0 | 5.0 | 0.00 | 0.37 | 0.30 | 88 | 1010.2 |
| 20260507221009 | 58 | 16 | 1.0 | 6.0 | 0.00 | 0.36 | 0.30 | 88 | 1012.2 |
| 20260507220521 | 57 | 264 | 1.0 | 6.0 | 0.00 | 0.37 | 0.30 | 88 | 1010.2 |
| 20260507220041 | 57 | 36 | 1.0 | 7.0 | 0.00 | 0.37 | 0.30 | 88 | 1010.0 |
| 20260507215953 | 57 | 72 | 1.0 | 6.0 | 0.00 | 0.36 | 0.30 | 88 | 1012.0 |
| 20260507215523 | 57 | 332 | 2.0 | 7.0 | 0.00 | 0.37 | 0.30 | 88 | 1010.0 |
| 20260507215020 | 57 | 125 | 2.0 | 4.0 | 0.00 | 0.37 | 0.30 | 88 | 1009.9 |
| 20260507214947 | 57 | 19 | 1.0 | 3.0 | 0.00 | 0.36 | 0.30 | 88 | 1011.9 |
| 20260507214540 | 57 | 85 | 2.0 | 6.0 | 0.00 | 0.37 | 0.30 | 88 | 1010.0 |
| 20260507214021 | 57 | 72 | 2.0 | 6.0 | 0.00 | 0.37 | 0.30 | 88 | 1010.0 |
| 20260507213952 | 57 | 80 | 1.0 | 6.0 | 0.00 | 0.36 | 0.30 | 88 | 1012.0 |
| 20260507213523 | 57 | 0 | 1.0 | 5.0 | 0.00 | 0.37 | 0.30 | 88 | 1010.0 |
| 20260507213037 | 57 | 166 | 1.0 | 7.0 | 0.00 | 0.37 | 0.30 | 88 | 1009.9 |
| 20260507212935 | 57 | 85 | 1.0 | 6.0 | 0.00 | 0.36 | 0.30 | 88 | 1011.9 |
| 20260507212521 | 57 | 1 | 1.0 | 7.0 | 0.00 | 0.37 | 0.30 | 88 | 1009.8 |
| 20260507212023 | 57 | 328 | 1.0 | 4.0 | 0.00 | 0.37 | 0.30 | 88 | 1009.8 |
| 20260507211535 | 57 | 351 | 2.0 | 9.0 | 0.01 | 0.37 | 0.30 | 88 | 1009.6 |
| 20260507211020 | 57 | 343 | 2.0 | 9.0 | 0.03 | 0.37 | 0.30 | 88 | 1009.6 |
| 20260507210845 | 57 | 347 | 2.0 | 9.0 | 0.00 | 0.36 | 0.30 | 88 | 1011.6 |
| 20260507210523 | 57 | 51 | 2.0 | 10.0 | 0.06 | 0.37 | 0.30 | 88 | 1009.7 |
| 20260507210052 | 57 | 89 | 2.0 | 10.0 | 0.07 | 0.37 | 0.30 | 88 | 1009.9 |
| 20260507205853 | 57 | 155 | 2.0 | 9.0 | 0.00 | 0.36 | 0.30 | 88 | 1011.9 |
| 20260507205521 | 57 | 18 | 1.0 | 9.0 | 0.07 | 0.37 | 0.30 | 88 | 1009.9 |
| 20260507205018 | 57 | 14 | 2.0 | 6.0 | 0.07 | 0.37 | 0.30 | 88 | 1010.0 |
| 20260507204818 | 57 | 33 | 1.0 | 4.0 | 0.00 | 0.36 | 0.30 | 88 | 1012.0 |
| 20260507204555 | 56 | 35 | 2.0 | 6.0 | 0.07 | 0.37 | 0.30 | 89 | 1009.9 |
| 20260507204018 | 56 | 50 | 1.0 | 7.0 | 0.08 | 0.37 | 0.30 | 89 | 1009.9 |
| 20260507203519 | 56 | 170 | 2.0 | 7.0 | 0.08 | 0.37 | 0.30 | 88 | 1009.8 |
| 20260507203041 | 57 | 68 | 2.0 | 6.0 | 0.08 | 0.37 | 0.30 | 88 | 1009.7 |
| 20260507202659 | 57 | 137 | 1.0 | 5.0 | 0.08 | 0.36 | 0.30 | 88 | 1011.8 |
| 20260507202518 | 57 | 106 | 1.0 | 4.0 | 0.09 | 0.37 | 0.30 | 88 | 1009.8 |
| 20260507202021 | 56 | 360 | 1.0 | 6.0 | 0.11 | 0.37 | 0.30 | 89 | 1009.5 |
| 20260507201630 | 57 | 125 | 1.0 | 5.0 | 0.27 | 0.34 | 0.28 | 88 | 1011.7 |
| 20260507201543 | 56 | 131 | 1.0 | 6.0 | 0.10 | 0.36 | 0.29 | 88 | 1009.8 |
| 20260507201018 | 56 | 12 | 1.0 | 4.0 | 0.07 | 0.33 | 0.26 | 88 | 1010.1 |
| 20260507200626 | 57 | 232 | 1.0 | 3.0 | 0.01 | 0.31 | 0.24 | 88 | 1012.3 |
| 20260507200522 | 56 | 96 | 1.0 | 4.0 | 0.05 | 0.31 | 0.24 | 88 | 1010.3 |
| 20260507200040 | 56 | 156 | 2.0 | 6.0 | 0.04 | 0.30 | 0.23 | 88 | 1010.2 |
| 20260507195622 | 57 | 307 | 1.0 | 5.0 | 0.01 | 0.30 | 0.23 | 88 | 1012.0 |
| 20260507195519 | 57 | 62 | 1.0 | 6.0 | 0.04 | 0.30 | 0.23 | 88 | 1009.9 |
| 20260507195021 | 57 | 133 | 1.0 | 6.0 | 0.04 | 0.30 | 0.23 | 88 | 1009.9 |
| 20260507194626 | 57 | 344 | 1.0 | 5.0 | 0.01 | 0.28 | 0.23 | 88 | 1012.1 |
| 20260507194543 | 57 | 263 | 0.0 | 5.0 | 0.04 | 0.30 | 0.23 | 88 | 1009.8 |
| 20260507194018 | 57 | 324 | 1.0 | 7.0 | 0.03 | 0.29 | 0.22 | 87 | 1009.8 |
| 20260507193608 | 58 | 95 | 1.0 | 5.0 | 0.06 | 0.28 | 0.21 | 87 | 1012.0 |
| 20260507193521 | 57 | 141 | 1.0 | 7.0 | 0.03 | 0.29 | 0.22 | 87 | 1010.1 |
| 20260507193043 | 57 | 330 | 2.0 | 5.0 | 0.03 | 0.29 | 0.22 | 87 | 1009.8 |
| 20260507192632 | 58 | 10 | 1.0 | 8.0 | 0.32 | 0.26 | 0.21 | 87 | 1012.2 |
| 20260507192518 | 58 | 16 | 2.0 | 7.0 | 0.01 | 0.27 | 0.20 | 87 | 1010.1 |
| 20260507192021 | 58 | 10 | 1.0 | 7.0 | 0.00 | 0.26 | 0.19 | 87 | 1009.7 |
| 20260507191627 | 58 | 70 | 2.0 | 8.0 | 0.00 | 0.26 | 0.19 | 87 | 1011.3 |
| 20260507191541 | 58 | 52 | 2.0 | 9.0 | 0.00 | 0.26 | 0.19 | 87 | 1009.4 |
| 20260507191018 | 58 | 3 | 2.0 | 9.0 | 0.00 | 0.26 | 0.19 | 87 | 1009.6 |
| 20260507190619 | 59 | 347 | 2.0 | 8.0 | 0.00 | 0.26 | 0.19 | 87 | 1011.5 |
| 20260507190603 | 58 | 0 | 3.0 | 9.0 | 0.00 | 0.26 | 0.19 | 87 | 1009.5 |
| 20260507190043 | 58 | 326 | 1.0 | 9.0 | 0.00 | 0.26 | 0.19 | 87 | 1009.9 |
| 20260507185554 | 59 | 68 | 2.0 | 8.0 | 0.00 | 0.26 | 0.19 | 87 | 1011.9 |
| 20260507185518 | 58 | 48 | 3.0 | 9.0 | 0.00 | 0.26 | 0.19 | 87 | 1009.9 |
| 20260507185024 | 59 | 49 | 2.0 | 9.0 | 0.00 | 0.26 | 0.19 | 87 | 1009.9 |
| 20260507184540 | 59 | 247 | 4.0 | 9.0 | 0.00 | 0.26 | 0.19 | 86 | 1009.6 |
| 20260507184536 | 60 | 80 | 3.0 | 10.0 | 0.00 | 0.26 | 0.19 | 86 | 1011.7 |
| 20260507184019 | 59 | 300 | 2.0 | 11.0 | 0.00 | 0.26 | 0.19 | 86 | 1009.7 |
| 20260507183521 | 60 | 85 | 5.0 | 13.0 | 0.00 | 0.26 | 0.19 | 86 | 1009.8 |
| 20260507183517 | 60 | 66 | 4.0 | 11.0 | 0.00 | 0.26 | 0.19 | 86 | 1011.9 |
| 20260507183041 | 60 | 10 | 5.0 | 13.0 | 0.00 | 0.26 | 0.19 | 85 | 1009.9 |
| 20260507182524 | 62 | 61 | 3.0 | 11.0 | 0.00 | 0.26 | 0.19 | 86 | 1011.8 |
| 20260507182521 | 61 | 61 | 7.0 | 12.0 | 0.00 | 0.26 | 0.19 | 86 | 1009.8 |
| 20260507182018 | 62 | 141 | 2.0 | 5.0 | 0.00 | 0.26 | 0.19 | 86 | 1009.5 |
| 20260507181535 | 62 | 355 | 1.0 | 7.0 | 0.00 | 0.26 | 0.19 | 86 | 1009.5 |
| 20260507181516 | 62 | 351 | 1.0 | 7.0 | 0.00 | 0.26 | 0.19 | 86 | 1011.6 |
| 20260507181019 | 62 | 0 | 1.0 | 8.0 | 0.00 | 0.26 | 0.19 | 86 | 1009.6 |
| 20260507180528 | 62 | 315 | 2.0 | 7.0 | 0.00 | 0.26 | 0.19 | 86 | 1011.6 |
| 20260507180521 | 62 | 343 | 2.0 | 8.0 | 0.00 | 0.26 | 0.19 | 86 | 1009.5 |
| 20260507180050 | 62 | 29 | 2.0 | 8.0 | 0.00 | 0.26 | 0.19 | 85 | 1009.5 |
| 20260507175535 | 62 | 270 | 1.0 | 8.0 | 0.00 | 0.26 | 0.19 | 85 | 1011.6 |
| 20260507175519 | 62 | 249 | 2.0 | 9.0 | 0.00 | 0.26 | 0.19 | 85 | 1009.6 |
| 20260507175021 | 62 | 357 | 1.0 | 11.0 | 0.00 | 0.26 | 0.19 | 85 | 1009.7 |
| 20260507174541 | 62 | 320 | 1.0 | 11.0 | 0.00 | 0.26 | 0.19 | 85 | 1009.4 |
| 20260507174022 | 62 | 110 | 4.0 | 11.0 | 0.00 | 0.26 | 0.19 | 86 | 1009.6 |
| 20260507173521 | 62 | 11 | 3.0 | 9.0 | 0.00 | 0.26 | 0.19 | 87 | 1009.5 |
| 20260507173510 | 63 | 54 | 2.0 | 10.0 | 0.00 | 0.26 | 0.19 | 87 | 1011.7 |
| 20260507173040 | 61 | 162 | 2.0 | 7.0 | 0.00 | 0.26 | 0.19 | 87 | 1009.8 |
| 20260507172521 | 61 | 58 | 3.0 | 7.0 | 0.00 | 0.26 | 0.19 | 87 | 1009.9 |
| 20260507172018 | 61 | 7 | 2.0 | 6.0 | 0.00 | 0.26 | 0.19 | 87 | 1010.1 |
| 20260507171542 | 61 | 7 | 2.0 | 6.0 | 0.00 | 0.26 | 0.19 | 87 | 1010.1 |
| 20260507171336 | 62 | 10 | 1.0 | 5.0 | 0.00 | 0.26 | 0.19 | 87 | 1012.1 |
| 20260507171020 | 62 | 18 | 2.0 | 6.0 | 0.00 | 0.26 | 0.19 | 87 | 1010.1 |
| 20260507170519 | 62 | 37 | 2.0 | 6.0 | 0.00 | 0.26 | 0.19 | 87 | 1010.0 |
| 20260507170356 | 63 | 75 | 1.0 | 5.0 | 0.00 | 0.26 | 0.19 | 87 | 1011.9 |
| 20260507170036 | 62 | 0 | 1.0 | 4.0 | 0.00 | 0.26 | 0.19 | 88 | 1010.0 |
| 20260507165519 | 63 | 55 | 1.0 | 8.0 | 0.00 | 0.26 | 0.19 | 88 | 1009.9 |
| 20260507165404 | 63 | 346 | 1.0 | 5.0 | 0.00 | 0.26 | 0.19 | 88 | 1012.0 |
| 20260507165023 | 63 | 283 | 1.0 | 8.0 | 0.00 | 0.26 | 0.19 | 88 | 1009.7 |
| 20260507164537 | 62 | 214 | 2.0 | 5.0 | 0.00 | 0.26 | 0.19 | 88 | 1009.4 |
| 20260507164400 | 63 | 60 | 1.0 | 4.0 | 0.00 | 0.26 | 0.19 | 88 | 1011.5 |
| 20260507164022 | 62 | 85 | 1.0 | 4.0 | 0.00 | 0.26 | 0.19 | 88 | 1009.5 |
| 20260507163521 | 62 | 25 | 1.0 | 5.0 | 0.00 | 0.26 | 0.19 | 88 | 1009.4 |
| 20260507163421 | 63 | 85 | 1.0 | 3.0 | 0.00 | 0.26 | 0.19 | 88 | 1011.5 |
| 20260507163044 | 62 | 171 | 1.0 | 8.0 | 0.00 | 0.26 | 0.19 | 89 | 1009.4 |
| 20260507162521 | 62 | 18 | 1.0 | 9.0 | 0.00 | 0.26 | 0.19 | 89 | 1009.4 |
| 20260507162416 | 62 | 307 | 2.0 | 10.0 | 0.00 | 0.26 | 0.19 | 89 | 1011.4 |
| 20260507162020 | 61 | 31 | 2.0 | 11.0 | 0.00 | 0.26 | 0.19 | 89 | 1009.3 |
| 20260507161542 | 61 | 347 | 3.0 | 11.0 | 0.00 | 0.26 | 0.19 | 89 | 1009.6 |
| 20260507161412 | 62 | 25 | 1.0 | 10.0 | 0.00 | 0.26 | 0.19 | 89 | 1011.6 |
| 20260507161020 | 61 | 283 | 1.0 | 6.0 | 0.00 | 0.26 | 0.19 | 89 | 1009.5 |
| 20260507160519 | 61 | 111 | 1.0 | 9.0 | 0.00 | 0.26 | 0.19 | 89 | 1009.6 |
| 20260507160355 | 61 | 30 | 2.0 | 10.0 | 0.00 | 0.26 | 0.19 | 89 | 1011.8 |
| 20260507160040 | 61 | 1 | 3.0 | 9.0 | 0.00 | 0.26 | 0.19 | 89 | 1009.5 |
| 20260507155522 | 61 | 52 | 2.0 | 11.0 | 0.00 | 0.26 | 0.19 | 89 | 1009.7 |
| 20260507155359 | 61 | 6 | 3.0 | 10.0 | 0.00 | 0.26 | 0.19 | 89 | 1011.7 |
| 20260507155022 | 61 | 66 | 4.0 | 11.0 | 0.00 | 0.26 | 0.19 | 89 | 1009.8 |
| 20260507154541 | 61 | 70 | 4.0 | 13.0 | 0.00 | 0.26 | 0.19 | 89 | 1009.8 |
| 20260507154406 | 62 | 15 | 3.0 | 9.0 | 0.00 | 0.26 | 0.19 | 89 | 1011.9 |
| 20260507154021 | 62 | 65 | 1.0 | 13.0 | 0.00 | 0.26 | 0.19 | 89 | 1009.8 |
| 20260507153521 | 64 | 80 | 2.0 | 5.0 | 0.00 | 0.26 | 0.19 | 89 | 1009.8 |
| 20260507153409 | 64 | 4 | 0.0 | 3.0 | 0.00 | 0.26 | 0.19 | 89 | 1011.9 |
| 20260507153046 | 64 | 102 | 0.0 | 2.0 | 0.00 | 0.26 | 0.19 | 89 | 1010.0 |
| 20260507152523 | 64 | 311 | 0.0 | 4.0 | 0.00 | 0.26 | 0.19 | 89 | 1010.0 |
| 20260507152404 | 65 | 311 | 0.0 | 0.0 | 0.00 | 0.26 | 0.19 | 89 | 1012.1 |
| 20260507152023 | 65 | 311 | 0.0 | 4.0 | 0.00 | 0.26 | 0.19 | 89 | 1010.1 |
| 20260507151543 | 65 | 254 | 0.0 | 3.0 | 0.00 | 0.26 | 0.19 | 89 | 1010.0 |
| 20260507151410 | 65 | 60 | 0.0 | 2.0 | 0.00 | 0.26 | 0.19 | 89 | 1012.0 |
| 20260507151023 | 64 | 59 | 1.0 | 3.0 | 0.00 | 0.26 | 0.19 | 89 | 1009.8 |
| 20260507150526 | 64 | 60 | 0.0 | 2.0 | 0.00 | 0.26 | 0.19 | 89 | 1009.9 |
| 20260507150357 | 65 | 39 | 0.0 | 1.0 | 0.00 | 0.26 | 0.19 | 89 | 1012.0 |
| 20260507150043 | 64 | 0 | 0.0 | 2.0 | 0.00 | 0.26 | 0.19 | 89 | 1010.0 |
| 20260507145527 | 64 | 0 | 0.0 | 2.0 | 0.00 | 0.26 | 0.19 | 89 | 1010.2 |
| 20260507145400 | 65 | 359 | 0.0 | 0.0 | 0.00 | 0.26 | 0.19 | 89 | 1012.1 |
| 20260507145022 | 64 | 359 | 0.0 | 2.0 | 0.00 | 0.26 | 0.19 | 89 | 1010.1 |
| 20260507144546 | 64 | 20 | 0.0 | 2.0 | 0.00 | 0.26 | 0.19 | 89 | 1009.5 |
| 20260507144420 | 65 | 20 | 0.0 | 0.0 | 0.00 | 0.26 | 0.19 | 89 | 1011.5 |
| 20260507144022 | 64 | 20 | 1.0 | 2.0 | 0.00 | 0.26 | 0.19 | 89 | 1009.4 |
| 20260507143525 | 64 | 331 | 0.0 | 2.0 | 0.00 | 0.26 | 0.19 | 89 | 1009.4 |
| 20260507143400 | 64 | 331 | 0.0 | 1.0 | 0.00 | 0.26 | 0.19 | 89 | 1011.4 |
| 20260507143042 | 64 | 322 | 0.0 | 2.0 | 0.01 | 0.26 | 0.19 | 89 | 1009.4 |
| 20260507142522 | 64 | 178 | 0.0 | 2.0 | 0.01 | 0.26 | 0.19 | 89 | 1009.4 |
| 20260507142356 | 64 | 178 | 0.0 | 0.0 | 0.00 | 0.26 | 0.19 | 89 | 1011.5 |
| 20260507142021 | 64 | 0 | 1.0 | 2.0 | 0.01 | 0.26 | 0.19 | 89 | 1009.5 |
| 20260507141539 | 64 | 0 | 0.0 | 3.0 | 0.01 | 0.26 | 0.19 | 89 | 1009.7 |
| 20260507141023 | 63 | 123 | 0.0 | 3.0 | 0.02 | 0.26 | 0.19 | 89 | 1009.4 |
| 20260507140522 | 63 | 114 | 0.0 | 3.0 | 0.03 | 0.26 | 0.19 | 89 | 1009.3 |
| 20260507140257 | 64 | 181 | 0.0 | 1.0 | 0.00 | 0.26 | 0.19 | 89 | 1011.4 |
| 20260507140048 | 63 | 181 | 0.0 | 2.0 | 0.03 | 0.26 | 0.19 | 89 | 1009.6 |
| 20260507135522 | 63 | 127 | 0.0 | 1.0 | 0.03 | 0.26 | 0.19 | 89 | 1009.6 |
| 20260507135223 | 64 | 127 | 0.0 | 0.0 | 0.00 | 0.26 | 0.19 | 89 | 1011.5 |
| 20260507135022 | 63 | 0 | 0.0 | 0.0 | 0.04 | 0.26 | 0.19 | 89 | 1009.5 |
| 20260507134544 | 63 | 0 | 0.0 | 1.0 | 0.05 | 0.26 | 0.19 | 89 | 1009.5 |
| 20260507134159 | 64 | 127 | 0.0 | 0.0 | 0.01 | 0.26 | 0.19 | 89 | 1011.5 |
| 20260507134023 | 63 | 0 | 0.0 | 2.0 | 0.06 | 0.26 | 0.19 | 89 | 1009.5 |
| 20260507133522 | 63 | 0 | 0.0 | 2.0 | 0.08 | 0.26 | 0.19 | 89 | 1009.3 |
| 20260507133144 | 64 | 127 | 0.0 | 1.0 | 0.04 | 0.25 | 0.18 | 89 | 1011.2 |
| 20260507133041 | 63 | 0 | 0.0 | 2.0 | 0.09 | 0.25 | 0.18 | 89 | 1009.2 |
| 20260507132526 | 63 | 0 | 0.0 | 4.0 | 0.10 | 0.25 | 0.18 | 89 | 1009.4 |
| 20260507132147 | 63 | 127 | 1.0 | 2.0 | 0.09 | 0.25 | 0.18 | 89 | 1011.4 |
| 20260507132021 | 63 | 0 | 0.0 | 4.0 | 0.10 | 0.25 | 0.18 | 89 | 1009.4 |
| 20260507131540 | 63 | 98 | 2.0 | 3.0 | 0.09 | 0.24 | 0.17 | 89 | 1009.2 |
| 20260507131158 | 63 | 120 | 0.0 | 1.0 | 0.04 | 0.23 | 0.17 | 89 | 1011.5 |
| 20260507131023 | 63 | 0 | 0.0 | 2.0 | 0.10 | 0.24 | 0.17 | 89 | 1009.7 |
| 20260507130527 | 63 | 143 | 0.0 | 2.0 | 0.10 | 0.23 | 0.16 | 89 | 1010.0 |
| 20260507130151 | 63 | 143 | 0.0 | 1.0 | 0.08 | 0.23 | 0.16 | 89 | 1011.9 |
| 20260507130050 | 63 | 143 | 0.0 | 3.0 | 0.10 | 0.23 | 0.16 | 89 | 1010.0 |
| 20260507125527 | 63 | 141 | 0.0 | 3.0 | 0.10 | 0.23 | 0.16 | 89 | 1010.1 |
| 20260507125207 | 63 | 178 | 0.0 | 2.0 | 0.13 | 0.21 | 0.15 | 89 | 1012.4 |
| 20260507125022 | 63 | 0 | 0.0 | 3.0 | 0.09 | 0.22 | 0.15 | 89 | 1010.5 |
| 20260507124546 | 63 | 151 | 0.0 | 2.0 | 0.09 | 0.21 | 0.14 | 89 | 1010.6 |
| 20260507124021 | 63 | 0 | 0.0 | 3.0 | 0.08 | 0.20 | 0.13 | 89 | 1011.0 |
| 20260507123522 | 63 | 0 | 0.0 | 3.0 | 0.05 | 0.17 | 0.10 | 89 | 1010.9 |
| 20260507123056 | 63 | 210 | 0.0 | 3.0 | 0.04 | 0.16 | 0.09 | 89 | 1010.6 |
| 20260507123011 | 63 | 210 | 0.0 | 2.0 | 0.04 | 0.16 | 0.09 | 89 | 1012.6 |
| 20260507122521 | 63 | 356 | 1.0 | 2.0 | 0.03 | 0.15 | 0.08 | 89 | 1010.4 |
| 20260507122022 | 63 | 305 | 0.0 | 3.0 | 0.03 | 0.15 | 0.08 | 89 | 1010.6 |
| 20260507122020 | 63 | 305 | 0.0 | 2.0 | 0.08 | 0.15 | 0.08 | 89 | 1012.6 |
| 20260507121548 | 63 | 230 | 1.0 | 3.0 | 0.03 | 0.15 | 0.08 | 89 | 1010.6 |
| 20260507121022 | 63 | 0 | 1.0 | 3.0 | 0.02 | 0.14 | 0.07 | 89 | 1010.3 |
| 20260507120952 | 63 | 171 | 1.0 | 2.0 | 0.01 | 0.13 | 0.06 | 89 | 1012.2 |
| 20260507120521 | 63 | 131 | 1.0 | 3.0 | 0.01 | 0.13 | 0.06 | 89 | 1010.1 |
| 20260507120045 | 63 | 167 | 1.0 | 2.0 | 0.01 | 0.13 | 0.06 | 89 | 1010.3 |
| 20260507120003 | 64 | 169 | 0.0 | 1.0 | 0.01 | 0.13 | 0.06 | 89 | 1012.4 |
| 20260507115521 | 63 | 0 | 0.0 | 2.0 | 0.01 | 0.13 | 0.06 | 89 | 1010.5 |
| 20260507115020 | 63 | 0 | 0.0 | 2.0 | 0.01 | 0.13 | 0.06 | 89 | 1010.4 |
| 20260507114934 | 63 | 209 | 0.0 | 1.0 | 0.01 | 0.11 | 0.06 | 89 | 1012.5 |
| 20260507114545 | 63 | 0 | 0.0 | 2.0 | 0.00 | 0.12 | 0.05 | 89 | 1010.3 |
| 20260507114024 | 63 | 0 | 0.0 | 2.0 | 0.00 | 0.12 | 0.05 | 89 | 1010.4 |
| 20260507113903 | 63 | 218 | 0.0 | 1.0 | 0.00 | 0.11 | 0.05 | 89 | 1012.4 |
| 20260507113522 | 63 | 0 | 0.0 | 1.0 | 0.00 | 0.12 | 0.05 | 89 | 1010.2 |
| 20260507113043 | 63 | 0 | 0.0 | 1.0 | 0.00 | 0.12 | 0.05 | 89 | 1010.3 |
| 20260507112856 | 63 | 218 | 0.0 | 0.0 | 0.00 | 0.11 | 0.05 | 89 | 1012.3 |
| 20260507112521 | 63 | 0 | 0.0 | 1.0 | 0.00 | 0.12 | 0.05 | 89 | 1010.3 |
| 20260507112021 | 63 | 0 | 0.0 | 1.0 | 0.00 | 0.12 | 0.05 | 89 | 1010.0 |
| 20260507111902 | 63 | 218 | 0.0 | 0.0 | 0.00 | 0.11 | 0.05 | 89 | 1012.0 |
| 20260507111545 | 63 | 0 | 0.0 | 1.0 | 0.00 | 0.12 | 0.05 | 89 | 1010.0 |
| 20260507111021 | 63 | 218 | 0.0 | 1.0 | 0.00 | 0.12 | 0.05 | 89 | 1009.8 |
| 20260507110521 | 63 | 0 | 0.0 | 1.0 | 0.00 | 0.12 | 0.05 | 89 | 1009.9 |
| 20260507110038 | 63 | 0 | 0.0 | 1.0 | 0.00 | 0.12 | 0.05 | 89 | 1009.8 |
| 20260507105755 | 63 | 233 | 0.0 | 0.0 | 0.00 | 0.11 | 0.05 | 89 | 1011.9 |
| 20260507105521 | 63 | 0 | 0.0 | 1.0 | 0.00 | 0.12 | 0.05 | 89 | 1009.9 |
| 20260507105021 | 63 | 0 | 0.0 | 2.0 | 0.00 | 0.12 | 0.05 | 89 | 1010.0 |
| 20260507104803 | 63 | 233 | 0.0 | 0.0 | 0.00 | 0.11 | 0.05 | 89 | 1012.0 |
| 20260507104543 | 63 | 0 | 0.0 | 2.0 | 0.00 | 0.12 | 0.05 | 89 | 1009.8 |
| 20260507104024 | 63 | 0 | 0.0 | 2.0 | 0.00 | 0.12 | 0.05 | 89 | 1009.9 |
| 20260507103733 | 63 | 237 | 0.0 | 0.0 | 0.00 | 0.11 | 0.05 | 89 | 1011.9 |
| 20260507103521 | 62 | 0 | 0.0 | 3.0 | 0.00 | 0.12 | 0.05 | 89 | 1009.8 |
| 20260507103042 | 63 | 282 | 1.0 | 4.0 | 0.00 | 0.12 | 0.05 | 89 | 1010.0 |
| 20260507102724 | 63 | 229 | 1.0 | 3.0 | 0.00 | 0.11 | 0.05 | 89 | 1011.8 |
| 20260507102521 | 63 | 0 | 0.0 | 4.0 | 0.00 | 0.12 | 0.05 | 89 | 1009.7 |
| 20260507102021 | 63 | 130 | 2.0 | 4.0 | 0.00 | 0.12 | 0.05 | 89 | 1009.7 |
| 20260507101723 | 63 | 166 | 0.0 | 1.0 | 0.00 | 0.11 | 0.05 | 89 | 1011.6 |
| 20260507101546 | 62 | 143 | 1.0 | 3.0 | 0.00 | 0.12 | 0.05 | 89 | 1009.7 |
| 20260507101022 | 62 | 0 | 0.0 | 3.0 | 0.00 | 0.12 | 0.05 | 89 | 1009.8 |
| 20260507100703 | 63 | 170 | 0.0 | 2.0 | 0.00 | 0.11 | 0.05 | 89 | 1011.9 |
| 20260507100520 | 62 | 170 | 1.0 | 3.0 | 0.00 | 0.12 | 0.05 | 89 | 1009.9 |
| 20260507100041 | 62 | 145 | 0.0 | 3.0 | 0.00 | 0.12 | 0.05 | 89 | 1009.9 |
| 20260507095701 | 63 | 145 | 1.0 | 2.0 | 0.00 | 0.11 | 0.05 | 89 | 1011.8 |
| 20260507095522 | 62 | 145 | 1.0 | 3.0 | 0.00 | 0.12 | 0.05 | 89 | 1009.7 |
| 20260507095023 | 63 | 147 | 1.0 | 3.0 | 0.00 | 0.12 | 0.05 | 89 | 1009.8 |
| 20260507094636 | 63 | 129 | 0.0 | 1.0 | 0.00 | 0.11 | 0.05 | 89 | 1012.0 |
| 20260507094540 | 63 | 153 | 0.0 | 2.0 | 0.00 | 0.12 | 0.05 | 89 | 1009.9 |
| 20260507094022 | 62 | 0 | 0.0 | 2.0 | 0.00 | 0.12 | 0.05 | 89 | 1010.0 |
| 20260507093523 | 63 | 153 | 0.0 | 3.0 | 0.00 | 0.12 | 0.05 | 89 | 1010.0 |
| 20260507093039 | 63 | 0 | 1.0 | 3.0 | 0.00 | 0.12 | 0.05 | 89 | 1010.0 |
| 20260507092524 | 63 | 171 | 0.0 | 2.0 | 0.00 | 0.12 | 0.05 | 89 | 1009.7 |
| 20260507092515 | 63 | 214 | 0.0 | 0.0 | 0.00 | 0.11 | 0.05 | 89 | 1011.8 |
| 20260507092023 | 62 | 0 | 0.0 | 1.0 | 0.00 | 0.12 | 0.05 | 89 | 1009.7 |
| 20260507091542 | 62 | 214 | 0.0 | 1.0 | 0.00 | 0.12 | 0.05 | 89 | 1009.7 |
| 20260507091531 | 63 | 214 | 0.0 | 0.0 | 0.00 | 0.11 | 0.05 | 89 | 1011.8 |
| 20260507091022 | 63 | 0 | 0.0 | 2.0 | 0.00 | 0.12 | 0.05 | 89 | 1010.0 |
| 20260507090531 | 63 | 197 | 0.0 | 0.0 | 0.00 | 0.11 | 0.05 | 89 | 1012.4 |
| 20260507090525 | 63 | 0 | 0.0 | 2.0 | 0.00 | 0.12 | 0.05 | 89 | 1010.3 |
| 20260507090042 | 63 | 0 | 0.0 | 2.0 | 0.00 | 0.12 | 0.05 | 89 | 1010.5 |
| 20260507085551 | 63 | 248 | 0.0 | 0.0 | 0.00 | 0.11 | 0.05 | 89 | 1012.5 |
| 20260507085522 | 63 | 0 | 0.0 | 2.0 | 0.00 | 0.12 | 0.05 | 89 | 1010.4 |
| 20260507085022 | 63 | 0 | 0.0 | 2.0 | 0.00 | 0.12 | 0.05 | 89 | 1010.4 |
| 20260507084609 | 63 | 325 | 0.0 | 2.0 | 0.00 | 0.11 | 0.05 | 89 | 1012.1 |
| 20260507084548 | 63 | 325 | 0.0 | 2.0 | 0.00 | 0.12 | 0.05 | 89 | 1010.0 |
| 20260507084031 | 63 | 276 | 0.0 | 2.0 | 0.00 | 0.12 | 0.05 | 89 | 1009.5 |
| 20260507083522 | 63 | 228 | 0.0 | 3.0 | 0.00 | 0.12 | 0.05 | 89 | 1009.4 |
| 20260507083048 | 63 | 0 | 0.0 | 3.0 | 0.01 | 0.12 | 0.05 | 89 | 1009.4 |
| 20260507082523 | 63 | 180 | 1.0 | 3.0 | 0.01 | 0.12 | 0.05 | 89 | 1009.5 |
| 20260507082424 | 63 | 209 | 0.0 | 2.0 | 0.00 | 0.11 | 0.05 | 89 | 1011.5 |
| 20260507082022 | 63 | 270 | 1.0 | 7.0 | 0.01 | 0.12 | 0.05 | 89 | 1009.5 |
| 20260507081540 | 63 | 162 | 2.0 | 7.0 | 0.02 | 0.12 | 0.05 | 89 | 1009.6 |
| 20260507081448 | 63 | 133 | 2.0 | 6.0 | 0.00 | 0.11 | 0.05 | 89 | 1011.7 |
| 20260507081022 | 63 | 178 | 2.0 | 7.0 | 0.02 | 0.12 | 0.05 | 89 | 1009.7 |
| 20260507080524 | 63 | 199 | 1.0 | 7.0 | 0.02 | 0.12 | 0.05 | 89 | 1009.8 |
| 20260507080437 | 63 | 229 | 2.0 | 6.0 | 0.00 | 0.11 | 0.05 | 89 | 1011.7 |
| 20260507080042 | 63 | 0 | 2.0 | 7.0 | 0.02 | 0.12 | 0.05 | 89 | 1009.6 |
| 20260507075522 | 63 | 200 | 2.0 | 8.0 | 0.03 | 0.12 | 0.05 | 89 | 1009.5 |
| 20260507075411 | 63 | 196 | 3.0 | 7.0 | 0.00 | 0.11 | 0.05 | 89 | 1011.5 |
| 20260507075022 | 63 | 160 | 2.0 | 8.0 | 0.04 | 0.12 | 0.05 | 89 | 1009.4 |
| 20260507074546 | 63 | 167 | 3.0 | 8.0 | 0.04 | 0.12 | 0.05 | 89 | 1009.5 |
| 20260507074405 | 63 | 195 | 2.0 | 10.0 | 0.04 | 0.11 | 0.05 | 89 | 1011.6 |
| 20260507074022 | 63 | 137 | 2.0 | 10.0 | 0.04 | 0.12 | 0.05 | 89 | 1009.8 |
| 20260507073523 | 63 | 166 | 4.0 | 11.0 | 0.04 | 0.12 | 0.05 | 89 | 1009.7 |
| 20260507073415 | 63 | 166 | 4.0 | 10.0 | 0.04 | 0.11 | 0.05 | 89 | 1011.6 |
| 20260507073047 | 63 | 164 | 6.0 | 11.0 | 0.03 | 0.11 | 0.04 | 89 | 1009.9 |
| 20260507072522 | 63 | 135 | 3.0 | 7.0 | 0.03 | 0.11 | 0.04 | 89 | 1010.3 |
| 20260507072410 | 63 | 154 | 3.0 | 5.0 | 0.01 | 0.11 | 0.04 | 89 | 1012.5 |
| 20260507072022 | 63 | 172 | 3.0 | 6.0 | 0.03 | 0.11 | 0.04 | 89 | 1010.3 |
| 20260507071558 | 63 | 198 | 2.0 | 6.0 | 0.02 | 0.10 | 0.03 | 89 | 1010.4 |
| 20260507071428 | 63 | 164 | 1.0 | 5.0 | 0.04 | 0.10 | 0.03 | 89 | 1012.4 |
| 20260507071027 | 63 | 222 | 0.0 | 4.0 | 0.02 | 0.10 | 0.03 | 89 | 1010.3 |
| 20260507070522 | 63 | 189 | 1.0 | 4.0 | 0.02 | 0.10 | 0.03 | 89 | 1010.2 |
| 20260507070041 | 63 | 184 | 1.0 | 4.0 | 0.02 | 0.10 | 0.03 | 89 | 1010.3 |
| 20260507065522 | 63 | 189 | 1.0 | 4.0 | 0.01 | 0.09 | 0.02 | 89 | 1010.7 |
| 20260507065258 | 63 | 177 | 1.0 | 3.0 | 0.00 | 0.08 | 0.01 | 89 | 1012.5 |
| 20260507065022 | 63 | 203 | 2.0 | 6.0 | 0.00 | 0.08 | 0.01 | 89 | 1010.5 |
| 20260507064545 | 63 | 176 | 1.0 | 6.0 | 0.00 | 0.08 | 0.01 | 89 | 1010.5 |
| 20260507064251 | 63 | 178 | 1.0 | 3.0 | 0.00 | 0.08 | 0.01 | 89 | 1012.4 |
| 20260507064024 | 63 | 166 | 1.0 | 6.0 | 0.00 | 0.08 | 0.01 | 89 | 1010.4 |
| 20260507063522 | 63 | 179 | 2.0 | 6.0 | 0.00 | 0.08 | 0.01 | 88 | 1010.6 |
| 20260507063041 | 63 | 204 | 2.0 | 6.0 | 0.00 | 0.08 | 0.01 | 88 | 1010.7 |
| 20260507062522 | 63 | 193 | 1.0 | 4.0 | 0.00 | 0.08 | 0.01 | 88 | 1011.0 |
| 20260507062209 | 64 | 241 | 1.0 | 5.0 | 0.00 | 0.08 | 0.01 | 88 | 1013.0 |
| 20260507062022 | 63 | 249 | 1.0 | 4.0 | 0.00 | 0.08 | 0.01 | 88 | 1011.0 |
| 20260507061536 | 63 | 182 | 2.0 | 4.0 | 0.00 | 0.08 | 0.01 | 88 | 1010.9 |
| 20260507061219 | 64 | 202 | 1.0 | 5.0 | 0.00 | 0.08 | 0.01 | 88 | 1012.8 |
| 20260507061021 | 63 | 182 | 2.0 | 6.0 | 0.01 | 0.08 | 0.01 | 88 | 1011.0 |
| 20260507060521 | 63 | 218 | 1.0 | 6.0 | 0.01 | 0.08 | 0.01 | 88 | 1011.4 |
| 20260507060240 | 64 | 189 | 1.0 | 3.0 | 0.00 | 0.08 | 0.01 | 88 | 1013.4 |
| 20260507060046 | 63 | 127 | 2.0 | 6.0 | 0.01 | 0.08 | 0.01 | 88 | 1011.5 |
| 20260507055521 | 63 | 220 | 1.0 | 6.0 | 0.01 | 0.08 | 0.01 | 88 | 1011.9 |
| 20260507055232 | 64 | 320 | 2.0 | 6.0 | 0.00 | 0.08 | 0.01 | 88 | 1014.2 |
| 20260507055023 | 63 | 301 | 2.0 | 7.0 | 0.01 | 0.08 | 0.01 | 88 | 1012.2 |
| 20260507054549 | 63 | 335 | 3.0 | 7.0 | 0.01 | 0.08 | 0.01 | 88 | 1011.9 |
| 20260507054221 | 64 | 193 | 2.0 | 6.0 | 0.00 | 0.08 | 0.01 | 88 | 1013.6 |
| 20260507054021 | 63 | 250 | 2.0 | 9.0 | 0.01 | 0.08 | 0.01 | 88 | 1011.6 |
| 20260507053521 | 63 | 187 | 3.0 | 9.0 | 0.01 | 0.08 | 0.01 | 88 | 1011.7 |
| 20260507053219 | 64 | 147 | 3.0 | 6.0 | 0.00 | 0.08 | 0.01 | 88 | 1013.8 |
| 20260507053047 | 63 | 197 | 3.0 | 8.0 | 0.01 | 0.08 | 0.01 | 88 | 1012.0 |
| 20260507052521 | 63 | 199 | 2.0 | 7.0 | 0.01 | 0.08 | 0.01 | 88 | 1012.1 |
| 20260507052223 | 64 | 183 | 2.0 | 5.0 | 0.01 | 0.08 | 0.01 | 88 | 1014.0 |
| 20260507052021 | 63 | 207 | 3.0 | 7.0 | 0.01 | 0.08 | 0.01 | 88 | 1012.0 |
| 20260507051540 | 63 | 185 | 2.0 | 4.0 | 0.01 | 0.08 | 0.01 | 88 | 1012.2 |
| 20260507051155 | 64 | 223 | 1.0 | 3.0 | 0.01 | 0.06 | 0.01 | 88 | 1014.3 |
| 20260507051021 | 63 | 203 | 1.0 | 4.0 | 0.00 | 0.07 | 0.00 | 88 | 1012.1 |
| 20260507050521 | 63 | 195 | 1.0 | 3.0 | 0.00 | 0.07 | 0.00 | 88 | 1012.2 |
| 20260507050205 | 64 | 238 | 0.0 | 0.0 | 0.00 | 0.06 | 0.00 | 88 | 1014.3 |
| 20260507050039 | 63 | 238 | 1.0 | 3.0 | 0.00 | 0.07 | 0.00 | 88 | 1012.3 |
| 20260507045522 | 63 | 308 | 1.0 | 4.0 | 0.00 | 0.07 | 0.00 | 88 | 1012.2 |
| 20260507045142 | 64 | 251 | 0.0 | 3.0 | 0.00 | 0.06 | 0.00 | 88 | 1014.2 |
| 20260507045023 | 63 | 251 | 1.0 | 4.0 | 0.00 | 0.07 | 0.00 | 88 | 1012.2 |
| 20260507044543 | 64 | 158 | 0.0 | 4.0 | 0.00 | 0.07 | 0.00 | 88 | 1012.0 |
| 20260507044206 | 64 | 216 | 0.0 | 2.0 | 0.00 | 0.06 | 0.00 | 88 | 1014.1 |
| 20260507044020 | 64 | 0 | 0.0 | 4.0 | 0.00 | 0.07 | 0.00 | 88 | 1012.1 |
| 20260507043521 | 64 | 0 | 0.0 | 3.0 | 0.00 | 0.07 | 0.00 | 88 | 1012.2 |
| 20260507043145 | 64 | 191 | 0.0 | 2.0 | 0.00 | 0.06 | 0.00 | 88 | 1014.1 |
| 20260507043043 | 64 | 0 | 0.0 | 4.0 | 0.00 | 0.07 | 0.00 | 88 | 1011.9 |
| 20260507042521 | 64 | 0 | 1.0 | 4.0 | 0.00 | 0.07 | 0.00 | 88 | 1011.9 |
| 20260507042126 | 64 | 178 | 1.0 | 3.0 | 0.00 | 0.06 | 0.00 | 88 | 1013.9 |
| 20260507042021 | 64 | 214 | 1.0 | 4.0 | 0.00 | 0.07 | 0.00 | 88 | 1011.8 |
| 20260507041542 | 64 | 257 | 1.0 | 8.0 | 0.01 | 0.07 | 0.00 | 88 | 1011.7 |
| 20260507041021 | 64 | 0 | 1.0 | 8.0 | 0.02 | 0.07 | 0.00 | 88 | 1011.6 |
| 20260507040522 | 64 | 206 | 3.0 | 8.0 | 0.02 | 0.07 | 0.00 | 88 | 1011.5 |
| 20260507040048 | 64 | 155 | 3.0 | 9.0 | 0.03 | 0.07 | 0.00 | 88 | 1011.8 |
| 20260507035957 | 65 | 224 | 3.0 | 7.0 | 0.00 | 0.06 | 0.06 | 88 | 1013.8 |
| 20260507035521 | 64 | 189 | 4.0 | 10.0 | 0.03 | 0.07 | 0.07 | 88 | 1011.7 |
| 20260507035021 | 64 | 209 | 3.0 | 10.0 | 0.03 | 0.07 | 0.07 | 88 | 1011.6 |
| 20260507034947 | 65 | 229 | 3.0 | 7.0 | 0.00 | 0.06 | 0.06 | 87 | 1013.6 |
| 20260507034547 | 64 | 206 | 3.0 | 8.0 | 0.04 | 0.07 | 0.07 | 87 | 1011.4 |
| 20260507034021 | 65 | 173 | 3.0 | 10.0 | 0.04 | 0.07 | 0.07 | 87 | 1011.5 |
| 20260507034005 | 65 | 200 | 3.0 | 8.0 | 0.00 | 0.06 | 0.06 | 88 | 1013.6 |
| 20260507033521 | 65 | 141 | 3.0 | 10.0 | 0.04 | 0.07 | 0.07 | 87 | 1011.5 |
| 20260507033038 | 65 | 178 | 5.0 | 10.0 | 0.04 | 0.07 | 0.07 | 87 | 1011.3 |
| 20260507033024 | 66 | 193 | 4.0 | 10.0 | 0.05 | 0.06 | 0.06 | 87 | 1013.4 |
| 20260507032520 | 65 | 152 | 4.0 | 12.0 | 0.04 | 0.07 | 0.07 | 87 | 1011.7 |
| 20260507032023 | 66 | 231 | 7.0 | 12.0 | 0.04 | 0.07 | 0.07 | 87 | 1012.9 |
| 20260507031951 | 66 | 193 | 3.0 | 10.0 | 0.10 | 0.06 | 0.06 | 87 | 1015.0 |
| 20260507031543 | 66 | 188 | 3.0 | 11.0 | 0.03 | 0.06 | 0.06 | 87 | 1013.1 |
| 20260507031022 | 66 | 200 | 3.0 | 11.0 | 0.02 | 0.05 | 0.05 | 87 | 1013.1 |
| 20260507031009 | 66 | 120 | 5.0 | 9.0 | 0.04 | 0.04 | 0.05 | 87 | 1015.0 |
| 20260507030522 | 66 | 181 | 5.0 | 12.0 | 0.02 | 0.05 | 0.05 | 87 | 1013.0 |
| 20260507030041 | 66 | 166 | 4.0 | 13.0 | 0.01 | 0.04 | 0.04 | 87 | 1012.8 |
| 20260507030021 | 67 | 193 | 4.0 | 11.0 | 0.01 | 0.04 | 0.04 | 87 | 1014.8 |
| 20260507025521 | 66 | 214 | 4.0 | 13.0 | 0.01 | 0.04 | 0.04 | 87 | 1012.8 |
| 20260507025034 | 67 | 248 | 5.0 | 13.0 | 0.01 | 0.04 | 0.04 | 87 | 1014.8 |
| 20260507025021 | 66 | 204 | 5.0 | 12.0 | 0.02 | 0.04 | 0.04 | 87 | 1012.8 |
| 20260507024541 | 66 | 234 | 6.0 | 14.0 | 0.01 | 0.03 | 0.03 | 87 | 1012.5 |
| 20260507024038 | 67 | 189 | 6.0 | 13.0 | 0.00 | 0.03 | 0.03 | 87 | 1014.2 |
| 20260507024023 | 67 | 247 | 5.0 | 14.0 | 0.01 | 0.03 | 0.03 | 87 | 1012.2 |
| 20260507023521 | 67 | 156 | 7.0 | 14.0 | 0.01 | 0.03 | 0.03 | 87 | 1012.3 |
| 20260507023053 | 67 | 154 | 4.0 | 11.0 | 0.00 | 0.03 | 0.03 | 87 | 1014.3 |
| 20260507023040 | 67 | 210 | 7.0 | 14.0 | 0.01 | 0.03 | 0.03 | 87 | 1012.2 |
| 20260507022521 | 67 | 198 | 3.0 | 9.0 | 0.01 | 0.03 | 0.03 | 87 | 1012.2 |
| 20260507022113 | 67 | 175 | 3.0 | 8.0 | 0.00 | 0.03 | 0.03 | 87 | 1014.2 |
| 20260507022022 | 67 | 177 | 5.0 | 9.0 | 0.01 | 0.03 | 0.03 | 87 | 1012.2 |
| 20260507021536 | 67 | 195 | 2.0 | 9.0 | 0.01 | 0.03 | 0.03 | 87 | 1012.1 |
| 20260507021138 | 68 | 262 | 3.0 | 7.0 | 0.00 | 0.03 | 0.03 | 87 | 1014.1 |
| 20260507021021 | 67 | 208 | 4.0 | 9.0 | 0.01 | 0.03 | 0.03 | 87 | 1012.1 |
| 20260507020523 | 67 | 219 | 4.0 | 9.0 | 0.01 | 0.03 | 0.03 | 87 | 1011.9 |
| 20260507020126 | 67 | 245 | 3.0 | 7.0 | 0.01 | 0.03 | 0.03 | 87 | 1014.0 |
| 20260507020035 | 67 | 195 | 3.0 | 9.0 | 0.02 | 0.03 | 0.03 | 87 | 1012.0 |
| 20260507015526 | 67 | 165 | 4.0 | 9.0 | 0.02 | 0.03 | 0.03 | 87 | 1011.9 |
| 20260507015112 | 67 | 212 | 2.0 | 5.0 | 0.00 | 0.02 | 0.02 | 87 | 1013.6 |
| 20260507015022 | 67 | 187 | 3.0 | 7.0 | 0.01 | 0.02 | 0.02 | 87 | 1011.5 |
| 20260507014547 | 67 | 174 | 2.0 | 7.0 | 0.01 | 0.02 | 0.02 | 87 | 1011.4 |
| 20260507014113 | 67 | 201 | 1.0 | 6.0 | 0.00 | 0.02 | 0.02 | 87 | 1013.5 |
| 20260507014022 | 67 | 249 | 3.0 | 7.0 | 0.02 | 0.02 | 0.02 | 87 | 1011.4 |
| 20260507013521 | 67 | 228 | 1.0 | 7.0 | 0.02 | 0.02 | 0.02 | 87 | 1011.1 |